createdAt,value
2018-02-04T00:02:05.078Z,57.20
2018-02-04T00:04:32.619Z,58.68
2018-02-04T00:07:00.322Z,56.88
2018-02-04T00:09:27.846Z,59.62
2018-02-04T00:11:55.375Z,57.34
2018-02-04T00:14:22.897Z,58.42
2018-02-04T00:16:50.510Z,57.99
2018-02-04T00:19:18.174Z,60.93
2018-02-04T00:21:46.396Z,59.94
2018-02-04T00:24:14.130Z,60.26
2018-02-04T00:26:41.652Z,60.09
2018-02-04T00:29:09.201Z,61.31
2018-02-04T00:31:36.755Z,60.55
2018-02-04T00:34:04.560Z,61.29
2018-02-04T00:36:32.227Z,58.86
2018-02-04T00:38:59.836Z,61.58
2018-02-04T00:41:27.371Z,59.84
2018-02-04T00:43:54.900Z,58.45
2018-02-04T00:46:22.416Z,60.25
2018-02-04T00:48:50.098Z,59.19
2018-02-04T00:51:17.664Z,59.78
2018-02-04T00:53:45.178Z,62.22
2018-02-04T00:56:12.707Z,60.95
2018-02-04T00:58:40.263Z,61.17
2018-02-04T01:01:07.909Z,63.08
2018-02-04T01:03:36.321Z,62.17
2018-02-04T01:06:03.874Z,61.87
2018-02-04T01:08:31.385Z,60.69
2018-02-04T01:10:59.138Z,60.38
2018-02-04T01:13:26.811Z,60.53
2018-02-04T01:15:54.596Z,61.31
2018-02-04T01:18:22.435Z,64.31
2018-02-04T01:20:49.937Z,62.23
2018-02-04T01:23:17.695Z,63.20
2018-02-04T01:25:45.352Z,62.73
2018-02-04T01:28:12.912Z,62.89
2018-02-04T01:30:40.596Z,66.23
2018-02-04T01:33:08.123Z,66.07
2018-02-04T01:35:35.642Z,64.81
2018-02-04T01:38:03.366Z,65.15
2018-02-04T01:40:30.889Z,65.54
2018-02-04T01:42:58.529Z,65.82
2018-02-04T01:45:26.072Z,65.44
2018-02-04T01:48:05.619Z,65.97
2018-02-04T01:50:33.373Z,65.02
2018-02-04T01:53:01.271Z,66.43
2018-02-04T01:55:29.019Z,66.67
2018-02-04T01:57:56.563Z,66.73
2018-02-04T02:00:24.209Z,66.58
2018-02-04T02:02:52.165Z,68.02
2018-02-04T02:05:19.707Z,68.96
2018-02-04T02:07:47.269Z,68.12
2018-02-04T02:10:14.785Z,67.45
2018-02-04T02:12:43.464Z,67.02
2018-02-04T02:15:10.992Z,68.98
2018-02-04T02:17:38.908Z,67.95
2018-02-04T02:20:06.425Z,67.29
2018-02-04T02:22:33.993Z,67.09
2018-02-04T02:25:01.672Z,67.39
2018-02-04T02:27:29.215Z,69.78
2018-02-04T02:29:56.777Z,69.70
2018-02-04T02:32:24.540Z,69.09
2018-02-04T02:34:52.060Z,67.53
2018-02-04T02:37:19.706Z,70.92
2018-02-04T02:39:47.227Z,69.54
2018-02-04T02:42:14.737Z,70.25
2018-02-04T02:44:42.263Z,70.53
2018-02-04T02:47:10.011Z,68.92
2018-02-04T02:49:37.709Z,69.85
2018-02-04T02:52:05.248Z,70.01
2018-02-04T02:54:33.136Z,71.48
2018-02-04T02:57:00.665Z,70.64
2018-02-04T02:59:28.196Z,70.27
2018-02-04T03:01:55.879Z,70.84
2018-02-04T03:04:23.683Z,71.11
2018-02-04T03:06:51.191Z,70.87
2018-02-04T03:09:19.807Z,69.91
2018-02-04T03:11:47.376Z,71.40
2018-02-04T03:14:15.022Z,70.55
2018-02-04T03:16:42.875Z,70.88
2018-02-04T03:19:10.381Z,70.64
2018-02-04T03:21:38.131Z,69.55
2018-02-04T03:24:05.915Z,71.46
2018-02-04T03:26:33.588Z,69.92
2018-02-04T03:29:01.127Z,72.03
2018-02-04T03:31:28.790Z,70.97
2018-02-04T03:33:56.313Z,69.83
2018-02-04T03:36:23.845Z,70.03
2018-02-04T03:38:51.370Z,69.90
2018-02-04T03:41:18.900Z,69.60
2018-02-04T03:43:46.405Z,71.65
2018-02-04T03:46:13.935Z,71.18
2018-02-04T03:48:41.459Z,71.08
2018-02-04T03:51:08.977Z,70.74
2018-02-04T03:53:36.492Z,69.49
2018-02-04T03:56:04.065Z,71.69
2018-02-04T03:58:31.588Z,71.34
2018-02-04T04:00:59.404Z,70.34
2018-02-04T04:03:26.940Z,68.84
2018-02-04T04:05:54.606Z,71.26
2018-02-04T04:08:22.131Z,69.71
2018-02-04T04:10:49.874Z,71.38
2018-02-04T04:13:17.399Z,69.61
2018-02-04T04:15:45.806Z,70.74
2018-02-04T04:18:13.471Z,69.83
2018-02-04T04:20:40.999Z,70.97
2018-02-04T04:23:08.534Z,69.15
2018-02-04T04:25:36.054Z,71.18
2018-02-04T04:28:03.605Z,70.44
2018-02-04T04:30:31.515Z,71.10
2018-02-04T04:32:59.042Z,70.56
2018-02-04T04:35:26.741Z,71.11
2018-02-04T04:37:54.632Z,70.65
2018-02-04T04:40:22.151Z,70.32
2018-02-04T04:42:49.723Z,70.83
2018-02-04T04:45:17.525Z,70.55
2018-02-04T04:47:45.200Z,70.10
2018-02-04T04:50:13.251Z,70.78
2018-02-04T04:52:41.422Z,71.19
2018-02-04T04:55:08.952Z,70.61
2018-02-04T04:57:36.467Z,72.33
2018-02-04T05:00:05.896Z,71.41
2018-02-04T05:02:33.401Z,70.65
2018-02-04T05:05:00.992Z,71.31
2018-02-04T05:07:28.511Z,71.75
2018-02-04T05:09:56.043Z,71.76
2018-02-04T05:12:23.773Z,71.81
2018-02-04T05:14:51.371Z,72.02
2018-02-04T05:17:18.904Z,70.78
2018-02-04T05:19:46.434Z,72.46
2018-02-04T05:22:14.872Z,71.15
2018-02-04T05:24:42.541Z,71.01
2018-02-04T05:27:10.088Z,69.27
2018-02-04T05:29:37.626Z,72.16
2018-02-04T05:32:05.467Z,71.36
2018-02-04T05:34:32.982Z,71.54
2018-02-04T05:37:00.628Z,69.99
2018-02-04T05:39:28.176Z,72.03
2018-02-04T05:41:56.069Z,69.56
2018-02-04T05:44:23.882Z,70.21
2018-02-04T05:46:51.426Z,70.85
2018-02-04T05:49:19.119Z,71.21
2018-02-04T05:51:46.666Z,70.17
2018-02-04T05:54:14.284Z,69.05
2018-02-04T05:56:41.805Z,71.37
2018-02-04T05:59:09.338Z,70.15
2018-02-04T06:01:37.116Z,71.29
2018-02-04T06:04:04.745Z,70.27
2018-02-04T06:06:32.416Z,72.34
2018-02-04T06:08:59.944Z,70.91
2018-02-04T06:11:27.693Z,71.64
2018-02-04T06:13:56.396Z,71.65
2018-02-04T06:16:23.935Z,69.34
2018-02-04T06:18:51.607Z,70.48
2018-02-04T06:21:19.350Z,70.69
2018-02-04T06:23:47.246Z,72.59
2018-02-04T06:26:15.048Z,70.87
2018-02-04T06:28:42.905Z,71.06
2018-02-04T06:31:10.707Z,71.88
2018-02-04T06:33:38.225Z,71.10
2018-02-04T06:36:05.875Z,71.74
2018-02-04T06:38:33.692Z,69.86
2018-02-04T06:41:01.224Z,70.91
2018-02-04T06:43:28.737Z,71.62
2018-02-04T06:45:56.275Z,71.05
2018-02-04T06:48:23.997Z,71.38
2018-02-04T06:50:51.530Z,71.00
2018-02-04T06:53:19.087Z,70.62
2018-02-04T06:55:46.972Z,70.09
2018-02-04T06:58:15.378Z,71.46
2018-02-04T07:00:43.029Z,70.93
2018-02-04T07:03:10.826Z,72.51
2018-02-04T07:05:38.350Z,70.25
2018-02-04T07:08:05.869Z,70.60
2018-02-04T07:10:33.423Z,70.85
2018-02-04T07:13:01.253Z,71.37
2018-02-04T07:15:29.014Z,70.14
2018-02-04T07:17:56.537Z,71.03
2018-02-04T07:20:24.045Z,70.79
2018-02-04T07:22:51.885Z,70.40
2018-02-04T07:25:19.560Z,70.96
2018-02-04T07:27:47.327Z,71.78
2018-02-04T07:30:15.092Z,70.18
2018-02-04T07:32:42.632Z,70.45
2018-02-04T07:35:10.293Z,72.06
2018-02-04T07:37:38.064Z,71.21
2018-02-04T07:40:05.586Z,69.91
2018-02-04T07:42:33.147Z,71.54
2018-02-04T07:45:00.694Z,70.25
2018-02-04T07:47:28.351Z,71.13
2018-02-04T07:49:55.878Z,70.21
2018-02-04T07:52:23.390Z,70.57
2018-02-04T07:54:51.162Z,69.42
2018-02-04T07:57:18.703Z,70.90
2018-02-04T07:59:46.392Z,69.40
2018-02-04T08:02:14.189Z,69.78
2018-02-04T08:04:41.727Z,71.16
2018-02-04T08:07:09.424Z,71.15
2018-02-04T08:09:36.998Z,70.88
2018-02-04T08:12:04.589Z,71.18
2018-02-04T08:14:32.138Z,70.37
2018-02-04T08:16:59.682Z,70.41
2018-02-04T08:19:27.458Z,71.34
2018-02-04T08:21:54.971Z,70.66
2018-02-04T08:24:22.618Z,71.21
2018-02-04T08:26:50.148Z,70.68
2018-02-04T08:29:17.900Z,70.94
2018-02-04T08:31:45.423Z,70.71
2018-02-04T08:34:12.987Z,70.11
2018-02-04T08:36:40.634Z,69.34
2018-02-04T08:39:08.187Z,70.31
2018-02-04T08:41:36.051Z,69.26
2018-02-04T08:44:03.798Z,68.28
2018-02-04T08:46:31.351Z,68.35
2018-02-04T08:48:59.028Z,69.65
2018-02-04T08:51:26.874Z,68.94
2018-02-04T08:53:54.399Z,68.08
2018-02-04T08:56:21.923Z,69.22
2018-02-04T08:58:49.679Z,68.38
2018-02-04T09:01:17.259Z,68.62
2018-02-04T09:03:44.864Z,69.54
2018-02-04T09:06:12.589Z,69.49
2018-02-04T09:08:40.131Z,69.94
2018-02-04T09:11:07.815Z,69.14
2018-02-04T09:13:35.365Z,68.63
2018-02-04T09:16:02.980Z,67.68
2018-02-04T09:18:30.625Z,69.56
2018-02-04T09:20:58.556Z,69.01
2018-02-04T09:23:26.091Z,67.37
2018-02-04T09:25:53.847Z,69.21
2018-02-04T09:28:21.394Z,68.49
2018-02-04T09:30:49.102Z,68.71
2018-02-04T09:33:16.678Z,68.91
2018-02-04T09:35:44.199Z,67.30
2018-02-04T09:38:11.705Z,67.60
2018-02-04T09:40:39.243Z,68.36
2018-02-04T09:43:06.894Z,69.34
2018-02-04T09:45:35.445Z,65.43
2018-02-04T09:48:03.003Z,67.90
2018-02-04T09:50:30.577Z,67.61
2018-02-04T09:52:58.464Z,68.24
2018-02-04T09:55:26.135Z,68.10
2018-02-04T09:57:53.669Z,66.70
2018-02-04T10:00:21.318Z,67.59
2018-02-04T10:02:49.067Z,69.19
2018-02-04T10:05:16.945Z,67.08
2018-02-04T10:07:44.689Z,68.79
2018-02-04T10:10:12.212Z,67.92
2018-02-04T10:12:39.849Z,67.06
2018-02-04T10:15:08.000Z,67.79
2018-02-04T10:17:35.762Z,69.39
2018-02-04T10:20:03.756Z,66.33
2018-02-04T10:22:31.320Z,63.84
2018-02-04T10:24:59.059Z,63.32
2018-02-04T10:27:26.840Z,65.23
2018-02-04T10:29:54.378Z,61.53
2018-02-04T10:32:21.902Z,63.11
2018-02-04T10:34:49.414Z,63.45
2018-02-04T10:37:17.092Z,62.29
2018-02-04T10:39:44.624Z,62.50
2018-02-04T10:42:12.166Z,65.00
2018-02-04T10:44:39.925Z,63.25
2018-02-04T10:47:07.441Z,63.66
2018-02-04T10:49:35.129Z,62.71
2018-02-04T10:52:03.068Z,61.19
2018-02-04T10:54:32.032Z,62.70
2018-02-04T10:56:59.848Z,62.67
2018-02-04T10:59:27.361Z,63.90
2018-02-04T11:01:54.921Z,61.78
2018-02-04T11:04:22.439Z,58.30
2018-02-04T11:06:50.231Z,62.52
2018-02-04T11:09:17.814Z,61.05
2018-02-04T11:11:45.459Z,60.10
2018-02-04T11:14:13.365Z,60.49
2018-02-04T11:16:41.082Z,63.47
2018-02-04T11:19:08.667Z,62.45
2018-02-04T11:21:36.251Z,63.92
2018-02-04T11:24:03.861Z,64.26
2018-02-04T11:26:31.624Z,63.63
2018-02-04T11:28:59.265Z,63.30
2018-02-04T11:31:26.809Z,63.03
2018-02-04T11:33:54.370Z,62.84
2018-02-04T11:36:22.024Z,64.54
2018-02-04T11:38:49.552Z,62.22
2018-02-04T11:41:17.132Z,62.90
2018-02-04T11:43:44.842Z,62.56
2018-02-04T11:46:12.378Z,65.03
2018-02-04T11:48:39.961Z,65.25
2018-02-04T11:51:07.639Z,64.63
2018-02-04T11:53:35.252Z,65.14
2018-02-04T11:56:02.829Z,63.39
2018-02-04T11:58:30.541Z,60.39
2018-02-04T12:00:58.199Z,62.83
2018-02-04T12:03:26.464Z,63.35
2018-02-04T12:05:53.996Z,62.49
2018-02-04T12:08:21.667Z,61.88
2018-02-04T12:10:49.200Z,63.65
2018-02-04T12:13:16.791Z,63.26
2018-02-04T12:15:44.340Z,64.47
2018-02-04T12:18:12.017Z,65.28
2018-02-04T12:20:39.666Z,66.38
2018-02-04T12:23:07.207Z,66.83
2018-02-04T12:25:34.775Z,66.82
2018-02-04T12:28:02.354Z,66.13
2018-02-04T12:30:29.951Z,65.60
2018-02-04T12:32:57.506Z,65.38
2018-02-04T12:35:25.309Z,66.63
2018-02-04T12:37:52.865Z,69.72
2018-02-04T12:40:20.448Z,70.08
2018-02-04T12:42:48.016Z,67.98
2018-02-04T12:45:15.565Z,68.59
2018-02-04T12:47:43.330Z,66.40
2018-02-04T12:50:11.019Z,67.69
2018-02-04T12:52:38.856Z,66.00
2018-02-04T12:55:06.441Z,65.34
2018-02-04T12:57:33.984Z,66.45
2018-02-04T13:00:01.889Z,65.22
2018-02-04T13:02:29.670Z,66.35
2018-02-04T13:04:57.246Z,67.13
2018-02-04T13:07:24.870Z,66.37
2018-02-04T13:09:52.587Z,67.80
2018-02-04T13:12:20.144Z,66.03
2018-02-04T13:14:48.763Z,67.42
2018-02-04T13:17:17.250Z,64.09
2018-02-04T13:19:44.932Z,64.75
2018-02-04T13:22:13.162Z,64.40
2018-02-04T13:24:40.810Z,67.87
2018-02-04T13:27:08.343Z,68.14
2018-02-04T13:29:35.948Z,64.44
2018-02-04T13:32:03.506Z,66.85
2018-02-04T13:34:31.054Z,68.63
2018-02-04T13:36:58.614Z,68.61
2018-02-04T13:39:26.157Z,66.93
2018-02-04T13:41:53.690Z,66.30
2018-02-04T13:44:21.243Z,66.64
2018-02-04T13:46:48.822Z,65.64
2018-02-04T13:49:16.391Z,65.77
2018-02-04T13:51:43.951Z,64.49
2018-02-04T13:54:11.502Z,68.05
2018-02-04T13:56:39.065Z,66.77
2018-02-04T13:59:06.683Z,66.99
2018-02-04T14:01:34.621Z,66.29
2018-02-04T14:04:02.295Z,67.93
2018-02-04T14:06:29.885Z,65.04
2018-02-04T14:08:57.501Z,66.69
2018-02-04T14:11:25.022Z,68.29
2018-02-04T14:13:52.570Z,70.18
2018-02-04T14:16:20.133Z,68.47
2018-02-04T14:18:47.718Z,68.82
2018-02-04T14:21:15.260Z,67.76
2018-02-04T14:23:42.854Z,68.31
2018-02-04T14:26:10.465Z,65.52
2018-02-04T14:28:38.049Z,67.75
2018-02-04T14:31:05.622Z,66.82
2018-02-04T14:33:33.258Z,67.99
2018-02-04T14:36:00.814Z,70.23
2018-02-04T14:38:28.378Z,70.76
2018-02-04T14:40:55.928Z,69.55
2018-02-04T14:43:23.524Z,69.12
2018-02-04T14:45:51.055Z,64.30
2018-02-04T14:48:18.987Z,68.82
2018-02-04T14:50:46.577Z,68.39
2018-02-04T14:53:14.280Z,70.25
2018-02-04T14:55:41.898Z,70.27
2018-02-04T14:58:09.515Z,70.93
2018-02-04T15:00:37.099Z,69.90
2018-02-04T15:03:05.494Z,67.25
2018-02-04T15:05:33.274Z,66.12
2018-02-04T15:08:00.876Z,62.56
2018-02-04T15:10:28.444Z,62.97
2018-02-04T15:12:56.052Z,61.25
2018-02-04T15:15:23.900Z,60.60
2018-02-04T15:17:51.464Z,60.91
2018-02-04T15:20:19.367Z,60.57
2018-02-04T15:22:46.959Z,60.10
2018-02-04T15:25:14.598Z,59.29
2018-02-04T15:27:42.189Z,59.35
2018-02-04T15:30:10.063Z,58.75
2018-02-04T15:32:37.648Z,58.17
2018-02-04T15:35:05.233Z,57.70
2018-02-04T15:37:32.880Z,57.81
2018-02-04T15:40:00.489Z,57.90
2018-02-04T15:42:28.187Z,57.11
2018-02-04T15:44:55.995Z,56.51
2018-02-04T15:47:23.560Z,56.16
2018-02-04T15:49:51.183Z,55.96
2018-02-04T15:52:19.140Z,66.62
2018-02-04T15:54:47.120Z,64.93
2018-02-04T15:57:14.772Z,65.20
2018-02-04T15:59:42.694Z,65.73
2018-02-04T16:02:10.301Z,65.12
2018-02-04T16:04:37.892Z,66.46
2018-02-04T16:07:05.709Z,66.68
2018-02-04T16:09:33.319Z,67.37
2018-02-04T16:12:00.912Z,66.82
2018-02-04T16:14:28.589Z,66.99
2018-02-04T16:16:56.155Z,66.40
2018-02-04T16:19:23.739Z,66.76
2018-02-04T16:21:51.352Z,67.87
2018-02-04T16:24:19.157Z,66.01
2018-02-04T16:26:46.829Z,67.57
2018-02-04T16:29:14.730Z,67.67
2018-02-04T16:31:43.052Z,68.89
2018-02-04T16:34:10.776Z,68.43
2018-02-04T16:36:38.448Z,66.08
2018-02-04T16:39:06.050Z,68.10
2018-02-04T16:41:33.614Z,67.34
2018-02-04T16:44:01.247Z,68.42
2018-02-04T16:46:28.855Z,68.79
2018-02-04T16:48:57.071Z,69.58
2018-02-04T16:51:25.451Z,70.23
2018-02-04T16:53:53.228Z,68.73
2018-02-04T16:56:20.789Z,70.32
2018-02-04T16:58:48.386Z,69.15
2018-02-04T17:01:16.758Z,75.58
2018-02-04T17:03:44.309Z,73.20
2018-02-04T17:06:11.903Z,71.12
2018-02-04T17:08:39.478Z,70.58
2018-02-04T17:11:07.133Z,71.45
2018-02-04T17:13:34.934Z,70.86
2018-02-04T17:16:04.578Z,69.85
2018-02-04T17:18:33.000Z,70.58
2018-02-04T17:21:02.297Z,70.71
2018-02-04T17:23:29.879Z,68.99
2018-02-04T17:25:57.512Z,71.01
2018-02-04T17:28:25.092Z,70.13
2018-02-04T17:30:52.725Z,70.88
2018-02-04T17:33:20.296Z,70.96
2018-02-04T17:35:48.855Z,70.13
2018-02-04T17:38:16.443Z,68.22
2018-02-04T17:40:44.217Z,70.21
2018-02-04T17:43:11.788Z,78.87
2018-02-04T17:45:39.392Z,74.46
2018-02-04T17:48:07.066Z,73.46
2018-02-04T17:50:35.089Z,73.01
2018-02-04T17:53:02.671Z,64.44
2018-02-04T17:55:31.140Z,73.19
2018-02-04T17:57:58.689Z,76.18
2018-02-04T18:00:27.360Z,77.20
2018-02-04T18:02:54.996Z,75.02
2018-02-04T18:05:22.728Z,74.72
2018-02-04T18:07:51.016Z,74.50
2018-02-04T18:10:19.194Z,73.98
2018-02-04T18:12:48.211Z,73.69
2018-02-04T18:15:16.445Z,73.58
2018-02-04T18:17:44.446Z,73.24
2018-02-04T18:20:13.007Z,73.34
2018-02-04T18:22:40.596Z,73.25
2018-02-04T18:25:08.197Z,73.13
2018-02-04T18:27:35.857Z,72.89
2018-02-04T18:30:08.855Z,72.92
2018-02-04T18:32:37.183Z,72.62
2018-02-04T18:35:05.591Z,72.68
2018-02-04T18:37:33.380Z,72.56
2018-02-04T18:40:01.019Z,72.65
2018-02-04T18:42:28.686Z,72.56
2018-02-04T18:44:57.217Z,72.52
2018-02-04T18:47:24.848Z,72.55
2018-02-04T18:49:52.721Z,72.50
2018-02-04T18:52:20.449Z,72.53
2018-02-04T18:54:48.151Z,72.51
2018-02-04T18:57:15.797Z,72.65
2018-02-04T18:59:43.615Z,72.62
2018-02-04T19:02:12.242Z,72.55
2018-02-04T19:04:39.853Z,72.62
2018-02-04T19:07:07.477Z,72.44
2018-02-04T19:09:36.064Z,72.17
2018-02-04T19:12:03.871Z,72.38
2018-02-04T19:14:31.478Z,72.33
2018-02-04T19:16:59.061Z,72.27
2018-02-04T19:19:26.787Z,72.29
2018-02-04T19:21:54.725Z,72.36
2018-02-04T19:24:23.287Z,72.03
2018-02-04T19:26:50.892Z,72.21
2018-02-04T19:29:19.156Z,72.37
2018-02-04T19:31:46.842Z,72.19
2018-02-04T19:34:14.440Z,72.23
2018-02-04T19:36:45.146Z,72.09
2018-02-04T19:39:12.793Z,72.22
2018-02-04T19:41:40.948Z,72.30
2018-02-04T19:44:08.824Z,72.22
2018-02-04T19:46:36.412Z,72.06
2018-02-04T19:49:04.686Z,71.24
2018-02-04T19:51:32.729Z,71.95
2018-02-04T19:54:00.495Z,72.00
2018-02-04T19:56:28.242Z,72.01
2018-02-04T19:58:56.173Z,71.93
2018-02-04T20:01:24.221Z,71.86
2018-02-04T20:03:51.916Z,71.65
2018-02-04T20:06:19.500Z,71.79
2018-02-04T20:08:47.156Z,71.71
2018-02-04T20:11:14.960Z,71.76
2018-02-04T20:13:42.573Z,71.96
2018-02-04T20:16:10.164Z,71.98
2018-02-04T20:18:38.678Z,71.87
2018-02-04T20:21:06.274Z,71.97
2018-02-04T20:23:33.842Z,71.88
2018-02-04T20:26:01.455Z,71.76
2018-02-04T20:28:29.246Z,72.10
2018-02-04T20:30:56.968Z,72.01
2018-02-04T20:33:25.282Z,71.86
2018-02-04T20:35:53.293Z,71.75
2018-02-04T20:38:21.081Z,71.65
2018-02-04T20:40:48.760Z,71.78
2018-02-04T20:43:16.368Z,71.56
2018-02-04T20:45:43.991Z,71.56
2018-02-04T20:48:11.632Z,71.50
2018-02-04T20:50:39.229Z,71.57
2018-02-04T20:53:06.851Z,71.53
2018-02-04T20:55:34.484Z,71.28
2018-02-04T20:58:02.050Z,71.70
2018-02-04T21:00:29.672Z,71.51
2018-02-04T21:02:57.256Z,71.13
2018-02-04T21:05:25.893Z,71.44
2018-02-04T21:07:54.561Z,71.58
2018-02-04T21:10:22.255Z,71.28
2018-02-04T21:12:49.899Z,71.37
2018-02-04T21:15:17.966Z,71.43
2018-02-04T21:17:46.149Z,71.45
2018-02-04T21:20:14.353Z,71.37
2018-02-04T21:22:41.959Z,71.37
2018-02-04T21:25:09.527Z,71.31
2018-02-04T21:27:37.465Z,71.24
2018-02-04T21:30:09.247Z,71.31
2018-02-04T21:32:38.445Z,71.44
2018-02-04T21:35:40.287Z,71.25
2018-02-04T21:38:16.780Z,71.28
2018-02-04T21:40:44.349Z,71.47
2018-02-04T21:43:11.960Z,71.51
2018-02-04T21:45:40.454Z,71.44
2018-02-04T21:50:53.317Z,71.27
2018-02-04T21:53:23.254Z,71.23
2018-02-04T21:55:50.762Z,71.24
2018-02-04T21:58:18.367Z,71.29
2018-02-04T22:00:45.950Z,71.30
2018-02-04T22:03:13.477Z,71.49
2018-02-04T22:05:41.010Z,71.39
2018-02-04T22:08:09.509Z,71.14
2018-02-04T22:14:03.692Z,71.25
2018-02-04T22:16:31.438Z,71.19
2018-02-04T22:18:58.959Z,71.18
2018-02-04T22:21:26.563Z,71.47
2018-02-04T22:27:34.645Z,71.25
2018-02-04T22:30:12.486Z,71.06
2018-02-04T22:32:40.361Z,70.58
2018-02-04T22:35:07.984Z,71.19
2018-02-04T22:37:35.668Z,71.15
2018-02-04T22:40:04.291Z,71.10
2018-02-04T22:42:31.869Z,71.19
2018-02-04T22:45:26.782Z,71.02
2018-02-04T22:47:54.575Z,71.27
2018-02-04T22:50:22.207Z,71.01
2018-02-04T22:52:49.769Z,71.41
2018-02-04T22:55:17.292Z,71.13
2018-02-04T22:57:44.848Z,71.29
2018-02-04T23:00:44.770Z,71.13
2018-02-04T23:03:27.690Z,70.63
2018-02-04T23:05:55.297Z,71.38
2018-02-04T23:08:29.943Z,71.32
2018-02-04T23:10:57.528Z,71.52
2018-02-04T23:13:25.424Z,71.25
2018-02-04T23:16:14.616Z,70.96
2018-02-04T23:18:42.179Z,71.38
2018-02-04T23:21:09.713Z,71.68
2018-02-04T23:23:39.859Z,71.58
2018-02-04T23:26:07.626Z,70.96
2018-02-04T23:28:35.332Z,71.39
2018-02-04T23:31:03.037Z,71.42
2018-02-04T23:33:30.582Z,71.47
2018-02-04T23:36:24.223Z,71.38
2018-02-04T23:42:46.055Z,71.44
2018-02-04T23:47:57.105Z,71.56
2018-02-04T23:50:24.731Z,71.38
2018-02-04T23:55:31.994Z,71.79
2018-02-04T23:58:00.399Z,71.49
